createdAt,value
2018-10-21T00:02:06.645Z,27.20
2018-10-21T00:04:34.459Z,27.30
2018-10-21T00:07:02.262Z,27.60
2018-10-21T00:09:30.088Z,27.50
2018-10-21T00:12:01.536Z,27.70
2018-10-21T00:14:30.452Z,27.80
2018-10-21T00:16:58.347Z,27.70
2018-10-21T00:19:28.833Z,27.90
2018-10-21T00:21:56.671Z,27.50
2018-10-21T00:24:24.470Z,27.50
2018-10-21T00:26:52.398Z,27.30
2018-10-21T00:29:20.335Z,27.60
2018-10-21T00:31:48.255Z,27.50
2018-10-21T00:34:16.214Z,27.60
2018-10-21T00:36:43.927Z,27.60
2018-10-21T00:39:13.008Z,27.70
2018-10-21T00:41:40.793Z,27.80
2018-10-21T00:44:08.559Z,28.30
2018-10-21T00:46:36.566Z,27.50
2018-10-21T00:49:04.432Z,27.70
2018-10-21T00:51:32.306Z,27.70
2018-10-21T00:54:09.398Z,27.70
2018-10-21T00:56:37.483Z,27.60
2018-10-21T00:59:06.108Z,27.60
2018-10-21T01:01:33.841Z,27.60
2018-10-21T01:04:02.827Z,27.60
2018-10-21T01:06:30.795Z,28.20
2018-10-21T01:08:58.902Z,27.60
2018-10-21T01:11:27.526Z,27.50
2018-10-21T01:13:55.425Z,27.60
2018-10-21T01:16:23.401Z,27.50
2018-10-21T01:18:51.262Z,27.40
2018-10-21T01:21:19.005Z,27.30
2018-10-21T01:23:46.792Z,27.30
2018-10-21T01:26:14.609Z,27.30
2018-10-21T01:28:42.439Z,27.20
2018-10-21T01:31:10.102Z,27.30
2018-10-21T01:33:38.163Z,27.30
2018-10-21T01:36:06.125Z,27.20
2018-10-21T01:38:33.785Z,27.20
2018-10-21T01:41:01.570Z,27.20
2018-10-21T01:43:30.522Z,27.20
2018-10-21T01:45:58.618Z,27.20
2018-10-21T01:48:28.163Z,27.20
2018-10-21T01:50:56.018Z,27.20
2018-10-21T01:53:23.942Z,27.20
2018-10-21T01:55:51.883Z,27.10
2018-10-21T01:58:19.598Z,27.20
2018-10-21T02:00:47.358Z,27.20
2018-10-21T02:03:15.457Z,27.50
2018-10-21T02:05:45.274Z,27.20
2018-10-21T02:08:13.277Z,27.20
2018-10-21T02:10:46.780Z,27.10
2018-10-21T02:13:14.661Z,27.10
2018-10-21T02:15:42.521Z,27.10
2018-10-21T02:18:10.282Z,27.50
2018-10-21T02:20:37.978Z,27.30
2018-10-21T02:23:05.944Z,27.30
2018-10-21T02:25:33.756Z,27.30
2018-10-21T02:28:01.457Z,27.00
2018-10-21T02:30:30.214Z,27.10
2018-10-21T02:32:59.156Z,27.30
2018-10-21T02:35:27.171Z,27.00
2018-10-21T02:37:55.498Z,27.30
2018-10-21T02:41:40.202Z,27.40
2018-10-21T02:44:10.891Z,27.40
2018-10-21T02:46:39.360Z,27.50
2018-10-21T02:49:08.078Z,27.70
2018-10-21T02:51:35.976Z,27.80
2018-10-21T02:54:19.443Z,27.70
2018-10-21T02:56:47.510Z,28.30
2018-10-21T02:59:15.308Z,27.70
2018-10-21T03:01:43.105Z,27.70
2018-10-21T03:04:10.919Z,27.70
2018-10-21T03:06:38.868Z,27.90
2018-10-21T03:09:08.532Z,27.90
2018-10-21T03:11:36.305Z,27.90
2018-10-21T03:14:05.093Z,28.00
2018-10-21T03:16:32.920Z,27.80
2018-10-21T03:19:00.661Z,28.10
2018-10-21T03:21:29.023Z,27.90
2018-10-21T03:23:57.047Z,27.90
2018-10-21T03:26:34.938Z,28.00
2018-10-21T03:29:03.455Z,28.00
2018-10-21T03:31:31.604Z,28.00
2018-10-21T03:33:59.428Z,28.10
2018-10-21T03:36:27.111Z,28.10
2018-10-21T03:38:54.866Z,28.00
2018-10-21T03:41:23.104Z,27.90
2018-10-21T03:43:50.831Z,28.60
2018-10-21T03:46:18.583Z,28.00
2018-10-21T03:48:46.249Z,28.10
2018-10-21T03:51:14.610Z,28.10
2018-10-21T03:53:42.521Z,28.70
2018-10-21T03:56:10.465Z,28.10
2018-10-21T03:58:38.275Z,28.40
2018-10-21T04:01:06.279Z,28.40
2018-10-21T04:03:34.298Z,28.40
2018-10-21T04:06:02.131Z,28.40
2018-10-21T04:08:30.895Z,28.30
2018-10-21T04:11:00.118Z,28.30
2018-10-21T04:13:30.051Z,28.40
2018-10-21T04:15:57.857Z,28.20
2018-10-21T04:18:25.717Z,28.20
2018-10-21T04:20:53.432Z,28.20
2018-10-21T04:23:21.150Z,28.20
2018-10-21T04:25:48.986Z,28.20
2018-10-21T04:28:21.650Z,28.20
2018-10-21T04:30:49.437Z,28.30
2018-10-21T04:33:47.704Z,28.10
2018-10-21T04:36:31.150Z,28.10
2018-10-21T04:41:11.565Z,28.10
2018-10-21T04:43:39.323Z,28.00
2018-10-21T04:46:07.143Z,27.80
2018-10-21T04:48:49.249Z,28.00
2018-10-21T04:51:17.127Z,28.00
2018-10-21T04:53:44.937Z,28.20
2018-10-21T04:56:12.705Z,28.50
2018-10-21T04:58:40.419Z,28.30
2018-10-21T05:01:11.071Z,28.30
2018-10-21T05:03:49.908Z,28.30
2018-10-21T05:06:17.827Z,28.40
2018-10-21T05:08:45.968Z,28.40
2018-10-21T05:11:17.693Z,28.30
2018-10-21T05:13:45.476Z,28.20
2018-10-21T05:16:13.230Z,28.30
2018-10-21T05:21:25.263Z,28.20
2018-10-21T05:23:53.584Z,28.30
2018-10-21T05:26:21.351Z,28.10
2018-10-21T05:29:01.744Z,28.00
2018-10-21T05:31:36.598Z,28.10
2018-10-21T05:34:06.847Z,28.10
2018-10-21T05:36:34.590Z,28.10
2018-10-21T05:39:03.234Z,28.20
2018-10-21T05:41:30.903Z,28.10
2018-10-21T05:44:16.404Z,28.30
2018-10-21T05:46:45.558Z,28.10
2018-10-21T05:49:29.879Z,28.20
2018-10-21T05:51:57.910Z,28.20
2018-10-21T05:54:25.766Z,28.30
2018-10-21T05:56:53.602Z,28.20
2018-10-21T05:59:29.430Z,28.20
2018-10-21T06:01:57.173Z,28.20
2018-10-21T06:04:24.975Z,28.40
2018-10-21T06:06:52.743Z,28.60
2018-10-21T06:09:20.795Z,28.60
2018-10-21T06:11:48.641Z,28.70
2018-10-21T06:14:16.449Z,28.80
2018-10-21T06:16:46.970Z,28.90
2018-10-21T06:19:20.073Z,28.70
2018-10-21T06:21:48.464Z,28.80
2018-10-21T06:24:16.236Z,29.00
2018-10-21T06:26:43.979Z,29.20
2018-10-21T06:29:20.658Z,29.50
2018-10-21T06:31:48.664Z,29.50
2018-10-21T06:34:17.519Z,29.50
2018-10-21T06:36:45.954Z,29.80
2018-10-21T06:39:14.917Z,30.00
2018-10-21T06:41:43.510Z,30.00
2018-10-21T06:44:11.284Z,30.10
2018-10-21T06:46:38.996Z,30.00
2018-10-21T06:49:07.859Z,31.00
2018-10-21T06:51:37.760Z,31.10
2018-10-21T06:54:05.611Z,31.50
2018-10-21T06:56:41.236Z,31.80
2018-10-21T06:59:08.968Z,31.70
2018-10-21T07:01:36.624Z,31.80
2018-10-21T07:04:04.929Z,32.10
2018-10-21T07:06:33.120Z,32.70
2018-10-21T07:09:04.321Z,32.90
2018-10-21T07:11:32.000Z,32.80
2018-10-21T07:14:00.255Z,33.60
2018-10-21T07:16:28.203Z,33.50
2018-10-21T07:18:56.272Z,33.40
2018-10-21T07:21:23.937Z,33.50
2018-10-21T07:23:52.425Z,33.60
2018-10-21T07:26:21.449Z,34.00
2018-10-21T07:28:49.251Z,33.90
2018-10-21T07:31:17.042Z,33.90
2018-10-21T07:33:45.005Z,34.30
2018-10-21T07:36:13.227Z,34.30
2018-10-21T07:38:41.052Z,34.60
2018-10-21T07:41:08.929Z,34.50
2018-10-21T07:43:36.824Z,34.80
2018-10-21T07:46:04.644Z,34.70
2018-10-21T07:48:32.553Z,34.80
2018-10-21T07:51:00.302Z,34.20
2018-10-21T07:53:28.615Z,34.40
2018-10-21T07:55:56.320Z,34.30
2018-10-21T07:58:25.037Z,34.20
2018-10-21T08:00:53.228Z,34.10
2018-10-21T08:03:23.273Z,34.70
2018-10-21T08:06:02.477Z,34.50
2018-10-21T08:08:30.409Z,34.90
2018-10-21T08:10:58.285Z,35.00
2018-10-21T08:13:26.856Z,34.90
2018-10-21T08:15:54.691Z,34.40
2018-10-21T08:18:22.509Z,34.10
2018-10-21T08:20:52.049Z,33.90
2018-10-21T08:23:20.028Z,34.00
2018-10-21T08:25:50.039Z,33.90
2018-10-21T08:28:20.358Z,34.00
2018-10-21T08:30:48.420Z,34.30
2018-10-21T08:33:17.833Z,33.80
2018-10-21T08:35:46.505Z,33.50
2018-10-21T08:38:14.339Z,33.40
2018-10-21T08:40:42.281Z,33.50
2018-10-21T08:43:10.528Z,33.30
2018-10-21T08:45:38.511Z,32.90
2018-10-21T08:48:06.317Z,32.80
2018-10-21T08:50:34.080Z,32.80
2018-10-21T08:53:01.935Z,32.70
2018-10-21T08:55:29.611Z,32.50
2018-10-21T08:57:58.355Z,32.50
2018-10-21T09:00:26.768Z,32.40
2018-10-21T09:02:54.694Z,31.80
2018-10-21T09:05:22.373Z,32.00
2018-10-21T09:07:55.728Z,32.30
2018-10-21T09:10:23.978Z,32.40
2018-10-21T09:12:52.472Z,32.30
2018-10-21T09:15:21.162Z,33.20
2018-10-21T09:17:53.766Z,32.70
2018-10-21T09:20:22.129Z,32.50
2018-10-21T09:22:49.967Z,32.20
2018-10-21T09:25:18.207Z,31.80
2018-10-21T09:27:50.684Z,32.00
2018-10-21T09:30:18.559Z,31.40
2018-10-21T09:32:46.419Z,31.50
2018-10-21T09:35:19.624Z,32.90
2018-10-21T09:37:48.682Z,31.70
2018-10-21T09:40:19.062Z,31.30
2018-10-21T09:42:47.624Z,31.00
2018-10-21T09:45:16.799Z,30.80
2018-10-21T09:47:44.914Z,30.50
2018-10-21T09:50:13.959Z,30.40
2018-10-21T09:52:42.508Z,30.40
2018-10-21T09:55:15.958Z,30.50
2018-10-21T09:57:44.957Z,30.20
2018-10-21T10:00:17.575Z,30.00
2018-10-21T10:02:55.231Z,30.10
2018-10-21T10:05:23.707Z,30.20
2018-10-21T10:07:58.999Z,29.90
2018-10-21T10:10:27.068Z,30.00
2018-10-21T10:12:55.596Z,29.70
2018-10-21T10:15:23.589Z,29.70
2018-10-21T10:17:55.091Z,29.40
2018-10-21T10:20:22.883Z,29.30
2018-10-21T10:22:51.432Z,29.00
2018-10-21T10:25:19.258Z,29.30
2018-10-21T10:27:47.022Z,29.00
2018-10-21T10:30:14.794Z,29.10
2018-10-21T10:32:43.170Z,28.90
2018-10-21T10:35:12.342Z,28.70
2018-10-21T10:37:40.230Z,28.90
2018-10-21T10:40:09.122Z,28.70
2018-10-21T10:42:38.541Z,28.60
2018-10-21T10:45:06.714Z,28.70
2018-10-21T10:47:35.159Z,28.30
2018-10-21T10:50:02.822Z,28.30
2018-10-21T10:52:30.736Z,28.30
2018-10-21T10:54:59.642Z,28.30
2018-10-21T10:57:27.315Z,28.30
2018-10-21T10:59:55.201Z,28.30
2018-10-21T11:02:24.425Z,28.30
2018-10-21T11:04:52.184Z,28.40
2018-10-21T11:07:19.893Z,28.50
2018-10-21T11:09:47.967Z,28.60
2018-10-21T11:12:15.855Z,28.60
2018-10-21T11:14:46.232Z,28.40
2018-10-21T11:17:15.894Z,28.20
2018-10-21T11:19:43.835Z,27.90
2018-10-21T11:22:29.029Z,27.60
2018-10-21T11:24:56.707Z,27.60
2018-10-21T11:27:24.537Z,27.50
2018-10-21T11:29:52.568Z,28.10
2018-10-21T11:32:20.880Z,27.80
2018-10-21T11:34:49.880Z,27.00
2018-10-21T11:37:17.800Z,26.80
2018-10-21T11:39:49.204Z,27.10
2018-10-21T11:42:17.072Z,26.50
2018-10-21T11:44:46.637Z,26.70
2018-10-21T11:47:15.467Z,26.40
2018-10-21T11:49:43.608Z,26.20
2018-10-21T11:52:11.777Z,26.40
2018-10-21T11:54:41.156Z,26.00
2018-10-21T11:57:08.984Z,26.00
2018-10-21T11:59:36.915Z,25.40
2018-10-21T12:02:04.719Z,25.50
2018-10-21T12:04:32.384Z,26.00
2018-10-21T12:07:02.720Z,25.40
2018-10-21T12:09:30.660Z,25.10
2018-10-21T12:11:58.790Z,25.00
2018-10-21T12:20:28.339Z,24.90
2018-10-21T12:23:02.000Z,24.90
2018-10-21T12:25:29.740Z,24.60
2018-10-21T12:27:57.588Z,24.70
2018-10-21T12:30:25.387Z,24.60
2018-10-21T12:32:53.274Z,24.60
2018-10-21T12:35:21.655Z,24.90
2018-10-21T12:37:49.677Z,24.40
2018-10-21T12:40:19.651Z,24.50
2018-10-21T12:42:47.470Z,24.50
2018-10-21T12:45:16.340Z,24.60
2018-10-21T12:47:44.219Z,24.70
2018-10-21T12:50:12.140Z,24.50
2018-10-21T12:52:39.884Z,24.60
2018-10-21T12:55:09.247Z,24.30
2018-10-21T12:57:36.931Z,24.20
2018-10-21T13:00:05.615Z,24.20
2018-10-21T13:02:34.175Z,24.30
2018-10-21T13:05:02.312Z,24.60
2018-10-21T13:07:30.867Z,24.50
2018-10-21T13:12:42.814Z,24.40
2018-10-21T13:15:10.879Z,24.50
2018-10-21T13:17:44.768Z,24.10
2018-10-21T13:20:13.355Z,24.40
2018-10-21T13:22:48.153Z,24.10
2018-10-21T13:25:17.363Z,24.10
2018-10-21T13:30:21.424Z,24.20
2018-10-21T13:32:49.996Z,24.10
2018-10-21T13:35:18.083Z,24.90
2018-10-21T13:37:47.931Z,24.10
2018-10-21T13:40:21.785Z,24.40
2018-10-21T13:42:50.642Z,24.50
2018-10-21T13:45:24.672Z,24.00
2018-10-21T13:47:55.680Z,24.20
2018-10-21T13:50:23.507Z,24.00
2018-10-21T13:52:51.352Z,24.00
2018-10-21T13:55:24.825Z,24.10
2018-10-21T13:57:52.714Z,23.80
2018-10-21T14:00:25.480Z,24.00
2018-10-21T14:02:55.566Z,24.00
2018-10-21T14:05:23.585Z,24.20
2018-10-21T14:07:51.213Z,24.20
2018-10-21T14:10:21.166Z,24.40
2018-10-21T14:12:48.947Z,24.70
2018-10-21T14:15:17.339Z,24.70
2018-10-21T14:17:45.304Z,24.40
2018-10-21T14:20:13.036Z,24.00
2018-10-21T14:22:40.914Z,23.80
2018-10-21T14:25:10.415Z,23.50
2018-10-21T14:27:38.280Z,23.40
2018-10-21T14:30:08.360Z,23.90
2018-10-21T14:32:36.200Z,23.70
2018-10-21T14:35:05.096Z,24.10
2018-10-21T14:37:32.943Z,23.90
2018-10-21T14:40:01.813Z,24.00
2018-10-21T14:42:33.094Z,23.60
2018-10-21T14:45:00.934Z,23.60
2018-10-21T14:47:30.576Z,24.10
2018-10-21T14:49:58.392Z,24.10
2018-10-21T14:52:26.980Z,23.50
2018-10-21T14:54:54.955Z,24.00
2018-10-21T14:57:23.348Z,23.60
2018-10-21T14:59:51.091Z,23.40
2018-10-21T15:02:19.219Z,23.90
2018-10-21T15:04:46.924Z,23.90
2018-10-21T15:07:16.621Z,23.80
2018-10-21T15:09:44.543Z,23.60
2018-10-21T15:12:13.034Z,23.60
2018-10-21T15:14:40.620Z,23.80
2018-10-21T15:17:08.637Z,23.50
2018-10-21T15:19:36.522Z,24.00
2018-10-21T15:22:05.458Z,23.80
2018-10-21T15:24:33.309Z,23.90
2018-10-21T15:27:01.131Z,23.50
2018-10-21T15:29:29.019Z,23.60
2018-10-21T15:31:57.962Z,23.60
2018-10-21T15:34:25.908Z,23.90
2018-10-21T15:36:53.678Z,24.00
2018-10-21T15:39:21.378Z,24.10
2018-10-21T15:41:49.119Z,24.20
2018-10-21T15:44:16.821Z,24.00
2018-10-21T15:46:44.762Z,24.40
2018-10-21T15:49:12.813Z,24.50
2018-10-21T15:51:40.674Z,24.60
2018-10-21T15:54:08.752Z,25.00
2018-10-21T15:56:36.527Z,25.10
2018-10-21T15:59:04.410Z,25.30
2018-10-21T16:01:32.407Z,24.90
2018-10-21T16:04:00.188Z,25.20
2018-10-21T16:06:28.676Z,25.20
2018-10-21T16:08:56.521Z,25.00
2018-10-21T16:11:24.398Z,25.10
2018-10-21T16:13:52.109Z,25.30
2018-10-21T16:16:19.959Z,25.50
2018-10-21T16:18:47.687Z,25.40
2018-10-21T16:21:34.121Z,25.40
2018-10-21T16:24:03.768Z,25.40
2018-10-21T16:26:32.205Z,25.60
2018-10-21T16:29:04.718Z,25.70
2018-10-21T16:31:32.555Z,25.70
2018-10-21T16:34:00.309Z,26.00
2018-10-21T16:36:28.440Z,25.90
2018-10-21T16:38:56.280Z,25.90
2018-10-21T16:41:27.596Z,26.10
2018-10-21T16:44:02.230Z,25.90
2018-10-21T16:46:30.582Z,26.10
2018-10-21T16:49:00.375Z,26.20
2018-10-21T16:51:28.247Z,26.40
2018-10-21T16:53:56.340Z,26.50
2018-10-21T16:56:24.112Z,26.70
2018-10-21T16:58:51.791Z,26.90
2018-10-21T17:01:19.835Z,26.80
2018-10-21T17:03:47.742Z,26.90
2018-10-21T17:06:15.894Z,27.00
2018-10-21T17:08:43.579Z,27.20
2018-10-21T17:11:11.726Z,27.30
2018-10-21T17:13:39.367Z,27.30
2018-10-21T17:16:07.562Z,27.30
2018-10-21T17:18:35.635Z,27.40
2018-10-21T17:21:03.316Z,27.50
2018-10-21T17:23:31.587Z,27.60
2018-10-21T17:26:02.544Z,27.70
2018-10-21T17:28:30.223Z,27.70
2018-10-21T17:30:58.400Z,27.90
2018-10-21T17:33:26.035Z,28.00
2018-10-21T17:36:00.196Z,28.00
2018-10-21T17:38:28.017Z,28.00
2018-10-21T17:40:56.735Z,28.00
2018-10-21T17:43:24.687Z,28.00
2018-10-21T17:45:53.827Z,28.00
2018-10-21T17:48:22.556Z,28.10
2018-10-21T17:50:50.339Z,28.10
2018-10-21T17:53:22.891Z,28.10
2018-10-21T17:55:51.880Z,28.10
2018-10-21T17:58:19.694Z,28.20
2018-10-21T18:00:47.531Z,28.20
2018-10-21T18:03:15.431Z,28.30
2018-10-21T18:05:43.181Z,28.30
2018-10-21T18:08:14.521Z,28.30
2018-10-21T18:10:43.431Z,28.50
2018-10-21T18:13:11.864Z,28.70
2018-10-21T18:15:39.953Z,28.60
2018-10-21T18:18:08.994Z,28.70
2018-10-21T18:20:36.695Z,28.80
2018-10-21T18:23:29.397Z,28.70
2018-10-21T18:25:57.187Z,28.80
2018-10-21T18:28:34.182Z,28.80
2018-10-21T18:31:28.590Z,28.90
2018-10-21T18:34:02.842Z,28.90
2018-10-21T18:36:30.562Z,28.90
2018-10-21T18:40:34.374Z,28.80
2018-10-21T18:43:02.051Z,28.80
2018-10-21T18:45:30.600Z,28.80
2018-10-21T18:47:58.337Z,28.70
2018-10-21T18:50:28.678Z,28.70
2018-10-21T18:52:56.339Z,28.80
2018-10-21T18:55:24.301Z,28.70
2018-10-21T18:57:53.031Z,28.70
2018-10-21T19:00:20.754Z,28.70
2018-10-21T19:02:48.927Z,28.70
2018-10-21T19:05:16.723Z,28.70
2018-10-21T19:07:44.405Z,28.70
2018-10-21T19:10:13.554Z,28.70
2018-10-21T19:12:41.648Z,28.60
2018-10-21T19:15:10.918Z,28.70
2018-10-21T19:17:38.935Z,28.50
2018-10-21T19:20:09.073Z,28.60
2018-10-21T19:22:40.311Z,28.60
2018-10-21T19:25:10.849Z,28.80
2018-10-21T19:27:40.124Z,28.60
2018-10-21T19:30:09.179Z,28.50
2018-10-21T19:32:38.185Z,28.50
2018-10-21T19:35:11.704Z,28.50
2018-10-21T19:37:39.626Z,28.50
2018-10-21T19:40:11.588Z,28.50
2018-10-21T19:42:41.620Z,28.40
2018-10-21T19:45:10.466Z,28.40
2018-10-21T19:47:38.486Z,28.50
2018-10-21T19:50:07.560Z,28.40
2018-10-21T19:52:35.562Z,28.50
2018-10-21T19:55:03.637Z,28.40
2018-10-21T19:57:31.620Z,28.50
2018-10-21T19:59:59.994Z,28.40
2018-10-21T20:02:29.704Z,28.40
2018-10-21T20:04:57.543Z,28.50
2018-10-21T20:07:25.520Z,28.40
2018-10-21T20:09:53.332Z,28.40
2018-10-21T20:12:21.859Z,28.30
2018-10-21T20:14:49.675Z,28.30
2018-10-21T20:17:17.937Z,28.30
2018-10-21T20:19:45.626Z,28.40
2018-10-21T20:22:13.461Z,28.30
2018-10-21T20:24:41.566Z,28.30
2018-10-21T20:27:09.639Z,28.30
2018-10-21T20:29:37.608Z,28.20
2018-10-21T20:32:05.995Z,28.30
2018-10-21T20:34:33.747Z,28.30
2018-10-21T20:37:02.655Z,28.30
2018-10-21T20:39:30.514Z,28.20
2018-10-21T20:41:59.653Z,28.20
2018-10-21T20:44:27.745Z,28.20
2018-10-21T20:46:55.868Z,28.20
2018-10-21T20:49:23.823Z,28.20
2018-10-21T20:51:51.674Z,28.20
2018-10-21T20:54:20.024Z,28.20
2018-10-21T20:56:50.880Z,28.20
2018-10-21T20:59:21.484Z,28.20
2018-10-21T21:01:49.916Z,28.30
2018-10-21T21:04:18.160Z,28.30
2018-10-21T21:06:47.238Z,28.20
2018-10-21T21:09:15.754Z,28.80
2018-10-21T21:11:43.568Z,28.10
2018-10-21T21:14:11.475Z,28.10
2018-10-21T21:16:40.095Z,28.10
2018-10-21T21:19:07.976Z,28.10
2018-10-21T21:21:36.709Z,28.20
2018-10-21T21:24:08.557Z,28.20
2018-10-21T21:26:36.664Z,28.20
2018-10-21T21:29:04.711Z,28.20
2018-10-21T21:31:37.158Z,28.20
2018-10-21T21:34:10.647Z,28.20
2018-10-21T21:36:42.602Z,28.10
2018-10-21T21:39:12.264Z,28.20
2018-10-21T21:41:59.183Z,28.20
2018-10-21T21:44:27.133Z,28.20
2018-10-21T21:46:54.865Z,28.10
2018-10-21T21:49:22.773Z,28.20
2018-10-21T21:51:50.816Z,28.20
2018-10-21T21:54:18.873Z,28.20
2018-10-21T21:56:47.155Z,28.40
2018-10-21T21:59:15.157Z,28.50
2018-10-21T22:01:43.039Z,28.50
2018-10-21T22:07:13.595Z,28.40
2018-10-21T22:09:46.083Z,28.40
2018-10-21T22:12:30.577Z,28.60
2018-10-21T22:14:58.684Z,28.80
2018-10-21T22:17:26.682Z,28.70
2018-10-21T22:19:59.776Z,28.60
2018-10-21T22:22:27.775Z,28.60
2018-10-21T22:24:55.747Z,28.60
2018-10-21T22:27:23.489Z,28.70
2018-10-21T22:29:51.341Z,28.50
2018-10-21T22:32:19.960Z,28.50
2018-10-21T22:34:47.708Z,28.50
2018-10-21T22:37:16.075Z,28.60
2018-10-21T22:39:45.021Z,28.60
2018-10-21T22:42:12.920Z,28.80
2018-10-21T22:44:42.136Z,28.80
2018-10-21T22:47:10.561Z,28.90
2018-10-21T22:49:38.404Z,28.80
2018-10-21T22:52:07.250Z,28.70
2018-10-21T22:54:34.943Z,28.50
2018-10-21T22:57:06.810Z,28.50
2018-10-21T22:59:45.332Z,28.80
2018-10-21T23:02:13.524Z,28.60
2018-10-21T23:04:41.191Z,28.30
2018-10-21T23:07:08.962Z,28.50
2018-10-21T23:09:36.588Z,28.60
2018-10-21T23:12:05.949Z,28.80
2018-10-21T23:14:33.731Z,28.80
2018-10-21T23:17:01.545Z,28.90
2018-10-21T23:19:40.993Z,28.60
2018-10-21T23:22:09.610Z,28.80
2018-10-21T23:24:37.987Z,29.00
2018-10-21T23:27:05.987Z,28.80
2018-10-21T23:29:33.912Z,29.00
2018-10-21T23:32:01.675Z,29.10
2018-10-21T23:34:29.583Z,29.10
2018-10-21T23:36:57.290Z,29.10
2018-10-21T23:39:25.914Z,29.00
2018-10-21T23:41:54.798Z,29.10
2018-10-21T23:44:22.337Z,29.00
2018-10-21T23:46:50.531Z,28.90
2018-10-21T23:49:20.175Z,28.80
2018-10-21T23:51:48.151Z,28.80
2018-10-21T23:54:15.812Z,28.70
2018-10-21T23:56:43.534Z,28.80
2018-10-21T23:59:11.513Z,28.80
